Time;durP1;ratioP1;P1;durP2;ratioP2;P2;SDS_P1;SDS_P2;PMS_P1;PMS_P2;Temp;Humidity;BMP_temperature;BMP_pressure;BME280_temperature;BME280_humidity;BME280_pressure;Samples;Min_cycle;Max_cycle;Signal;HPM_P1;HPM_P2
2023/01/22 00:01:30;;;;;;;17.52;9.85;;;0.20;99.90;;;;;;5071026;28;20508;-50
2023/01/22 00:03:55;;;;;;;21.83;10.95;;;-0.60;99.90;;;;;;5071507;28;20116;-51
2023/01/22 00:06:22;;;;;;;19.75;10.40;;;-0.50;99.90;;;;;;5071465;28;20032;-50
2023/01/22 00:08:48;;;;;;;20.42;10.18;;;-0.30;99.90;;;;;;5070969;28;20042;-52
2023/01/22 00:11:15;;;;;;;20.35;10.48;;;-0.50;99.90;;;;;;5071395;28;20040;-51
2023/01/22 00:13:42;;;;;;;23.25;10.23;;;-0.20;99.90;;;;;;5069995;28;20111;-51
2023/01/22 00:16:13;;;;;;;20.65;10.10;;;-0.50;99.90;;;;;;5069687;28;20499;-48
2023/01/22 00:18:39;;;;;;;19.92;9.77;;;-0.60;99.90;;;;;;5071090;28;20068;-49
2023/01/22 00:21:05;;;;;;;19.30;9.60;;;-0.50;99.90;;;;;;5071388;28;20025;-50
2023/01/22 00:23:32;;;;;;;19.45;10.10;;;-0.60;99.90;;;;;;5069094;28;20453;-48
2023/01/22 00:26:02;;;;;;;18.63;10.25;;;-0.50;99.90;;;;;;5071044;28;20472;-50
2023/01/22 00:28:28;;;;;;;20.63;10.35;;;-0.60;99.90;;;;;;5070852;28;20048;-48
2023/01/22 00:31:01;;;;;;;21.73;10.07;;;-0.60;99.90;;;;;;5068526;28;20041;-49
2023/01/22 00:33:27;;;;;;;19.00;9.70;;;-0.60;99.90;;;;;;5070665;28;20044;-52
2023/01/22 00:35:53;;;;;;;23.30;9.55;;;-0.60;99.90;;;;;;5071119;28;20115;-52
2023/01/22 00:38:19;;;;;;;19.88;9.63;;;-0.60;99.90;;;;;;5070408;28;20116;-48
2023/01/22 00:40:44;;;;;;;18.30;9.35;;;-0.80;99.90;;;;;;5070517;28;20493;-51
2023/01/22 00:43:10;;;;;;;18.15;9.60;;;-0.80;99.90;;;;;;5070840;28;20052;-49
2023/01/22 00:45:36;;;;;;;19.05;9.73;;;-0.70;99.90;;;;;;5070495;28;20391;-48
2023/01/22 00:48:01;;;;;;;18.17;9.85;;;-0.80;99.90;;;;;;5069001;28;20044;-50
2023/01/22 00:50:27;;;;;;;22.42;9.57;;;-0.80;99.90;;;;;;5069381;28;20067;-51
2023/01/22 00:52:53;;;;;;;23.65;10.40;;;-0.70;99.90;;;;;;5069715;28;20052;-50
2023/01/22 00:55:19;;;;;;;25.10;10.23;;;-0.80;99.90;;;;;;5069327;28;20056;-48
2023/01/22 00:57:44;;;;;;;24.92;9.45;;;-0.90;99.90;;;;;;5068969;28;20404;-49
2023/01/22 01:00:13;;;;;;;23.27;9.70;;;-0.80;99.90;;;;;;5070918;28;20037;-51
2023/01/22 01:05:24;;;;;;;20.45;10.15;;;-1.00;99.90;;;;;;5069743;28;20036;-48
2023/01/22 01:07:51;;;;;;;18.02;9.60;;;-0.80;99.90;;;;;;5070642;28;20081;-49
2023/01/22 01:10:17;;;;;;;19.88;9.98;;;-0.80;99.90;;;;;;5070467;28;20028;-51
2023/01/22 01:12:43;;;;;;;20.45;10.43;;;-1.00;99.90;;;;;;5070167;28;20036;-47
2023/01/22 01:15:09;;;;;;;19.85;10.25;;;-1.00;99.90;;;;;;5068883;28;20502;-49
2023/01/22 01:17:35;;;;;;;21.17;9.90;;;-1.00;99.90;;;;;;5069157;28;20032;-51
2023/01/22 01:20:00;;;;;;;18.23;9.77;;;-1.00;99.90;;;;;;5070043;28;20071;-49
2023/01/22 01:22:26;;;;;;;20.23;10.10;;;-1.00;99.90;;;;;;5080197;28;20060;-51
2023/01/22 01:24:52;;;;;;;19.67;9.40;;;-0.90;99.90;;;;;;5070338;28;20048;-47
2023/01/22 01:27:17;;;;;;;20.30;9.43;;;-0.40;99.90;;;;;;5070412;28;20593;-50
2023/01/22 01:29:43;;;;;;;19.48;9.48;;;-1.00;99.90;;;;;;5070043;28;20035;-52
2023/01/22 01:32:09;;;;;;;21.05;10.50;;;-1.00;99.90;;;;;;5069772;28;20032;-47
2023/01/22 01:34:34;;;;;;;18.98;9.57;;;-0.90;99.90;;;;;;5069607;28;20119;-50
2023/01/22 01:37:00;;;;;;;18.98;9.48;;;-1.00;99.90;;;;;;5070214;28;20040;-48
2023/01/22 01:39:26;;;;;;;18.30;9.40;;;-1.00;99.90;;;;;;5069866;28;20124;-46
2023/01/22 01:41:51;;;;;;;21.17;9.90;;;-1.00;99.90;;;;;;5070159;28;20392;-48
2023/01/22 01:44:20;;;;;;;20.92;9.50;;;-1.00;99.90;;;;;;5069787;28;20028;-50
2023/01/22 01:46:54;;;;;;;20.23;10.35;;;-0.90;99.90;;;;;;5070026;28;20040;-50
2023/01/22 01:49:32;;;;;;;20.88;9.65;;;-0.90;99.90;;;;;;5069633;28;20041;-47
2023/01/22 01:52:02;;;;;;;20.83;9.85;;;-0.90;99.90;;;;;;5069988;28;20116;-50
2023/01/22 01:54:29;;;;;;;20.10;9.75;;;-1.00;99.90;;;;;;5069202;28;20411;-48
2023/01/22 01:57:17;;;;;;;21.85;9.18;;;-0.80;99.90;;;;;;5070163;28;20080;-51
2023/01/22 01:59:46;;;;;;;22.10;9.98;;;-0.80;99.90;;;;;;5069105;28;20041;-48
2023/01/22 02:02:12;;;;;;;23.40;10.02;;;-0.80;99.90;;;;;;5067124;28;20043;-51
2023/01/22 02:04:38;;;;;;;17.25;8.43;;;-1.00;99.90;;;;;;5069805;28;20426;-47
2023/01/22 02:07:05;;;;;;;27.00;10.68;;;-0.90;99.90;;;;;;5071995;28;20040;-48
2023/01/22 02:09:31;;;;;;;22.25;10.43;;;-0.90;99.90;;;;;;5072356;28;20036;-49
2023/01/22 02:11:57;;;;;;;23.70;10.82;;;-0.90;99.90;;;;;;5073325;28;20446;-49
2023/01/22 02:14:30;;;;;;;21.58;10.15;;;-0.90;99.90;;;;;;5073082;28;20037;-50
2023/01/22 02:17:15;;;;;;;24.08;11.00;;;-0.90;99.90;;;;;;5073313;28;20409;-48
2023/01/22 02:19:41;;;;;;;30.02;11.18;;;-0.80;99.90;;;;;;5073322;28;20040;-50
2023/01/22 02:22:20;;;;;;;23.90;10.40;;;-0.90;99.90;;;;;;5084057;28;20036;-47
2023/01/22 02:24:46;;;;;;;22.05;10.27;;;-1.10;99.90;;;;;;5073190;28;20574;-49
2023/01/22 02:27:12;;;;;;;25.23;11.05;;;-1.10;99.90;;;;;;5073140;28;20041;-50
2023/01/22 02:29:38;;;;;;;24.55;11.25;;;-1.20;99.90;;;;;;5073333;28;20040;-49
2023/01/22 02:32:03;;;;;;;22.10;10.38;;;-1.00;99.90;;;;;;5072635;28;20040;-48
2023/01/22 02:34:29;;;;;;;27.33;10.95;;;-1.20;99.90;;;;;;5071588;28;20041;-49
2023/01/22 02:36:55;;;;;;;29.30;11.65;;;-1.00;99.90;;;;;;5072920;28;20464;-49
2023/01/22 02:39:21;;;;;;;24.40;10.63;;;-1.10;99.90;;;;;;5070802;28;20032;-46
2023/01/22 02:41:46;;;;;;;29.65;12.07;;;-1.00;99.90;;;;;;5072686;28;20472;-50
2023/01/22 02:44:12;;;;;;;28.85;12.60;;;-1.20;99.90;;;;;;5073013;28;20048;-52
2023/01/22 02:46:38;;;;;;;25.85;11.30;;;-1.30;99.90;;;;;;5069947;28;20063;-48
2023/01/22 02:49:04;;;;;;;29.33;12.13;;;-1.10;99.90;;;;;;5071304;28;20044;-48
2023/01/22 02:51:29;;;;;;;27.77;10.93;;;-1.30;99.90;;;;;;5072712;28;20039;-50
2023/01/22 02:53:55;;;;;;;28.33;11.27;;;-1.40;99.90;;;;;;5070711;28;20082;-47
2023/01/22 02:56:21;;;;;;;25.52;11.00;;;-1.20;99.90;;;;;;5072842;28;20089;-46
2023/01/22 02:58:47;;;;;;;27.23;11.07;;;-1.30;99.90;;;;;;5072997;28;20036;-50
2023/01/22 03:01:21;;;;;;;28.70;11.70;;;-1.40;99.90;;;;;;5072532;28;20086;-51
2023/01/22 03:03:55;;;;;;;24.17;10.90;;;-1.30;99.90;;;;;;5072391;28;20076;-50
2023/01/22 03:06:23;;;;;;;26.15;11.18;;;-1.20;99.90;;;;;;5071058;28;20060;-49
2023/01/22 03:08:57;;;;;;;25.27;12.05;;;-1.40;99.90;;;;;;5072605;28;20047;-49
2023/01/22 03:11:24;;;;;;;27.33;11.15;;;-1.30;99.90;;;;;;5072814;28;20746;-47
2023/01/22 03:22:04;;;;;;;;;;;-1.20;99.90;;;;;;5072962;28;20501;-47
2023/01/22 03:24:30;;;;;;;23.35;10.38;;;-1.30;99.90;;;;;;5072418;28;20016;-48
2023/01/22 03:26:55;;;;;;;25.35;11.40;;;-1.10;99.90;;;;;;5070969;28;20063;-50
2023/01/22 03:29:21;;;;;;;29.17;11.90;;;-0.90;99.90;;;;;;5071831;28;20064;-48
2023/01/22 03:31:47;;;;;;;30.92;12.30;;;-1.10;99.90;;;;;;5069986;28;20055;-50
2023/01/22 03:34:18;;;;;;;31.73;12.65;;;-0.80;99.90;;;;;;5072208;28;20396;-49
2023/01/22 03:36:44;;;;;;;28.48;11.80;;;-1.00;99.90;;;;;;5070572;28;20556;-48
2023/01/22 03:39:11;;;;;;;28.27;12.20;;;-0.90;99.90;;;;;;5071229;28;20116;-49
2023/01/22 03:41:37;;;;;;;29.98;12.70;;;-0.70;99.90;;;;;;5072167;28;20471;-47
2023/01/22 03:44:03;;;;;;;32.53;12.05;;;-0.90;99.90;;;;;;5071954;28;20513;-49
2023/01/22 03:46:29;;;;;;;27.23;12.13;;;-0.60;99.90;;;;;;5070216;28;20068;-47
2023/01/22 03:48:55;;;;;;;26.10;12.15;;;-0.90;99.90;;;;;;5071604;28;20044;-49
2023/01/22 03:51:22;;;;;;;26.73;12.05;;;-0.60;99.90;;;;;;5070616;28;20033;-53
2023/01/22 03:53:48;;;;;;;28.42;12.15;;;-0.80;99.90;;;;;;5071212;28;20048;-47
2023/01/22 03:56:19;;;;;;;29.52;13.13;;;-0.60;99.90;;;;;;5070114;28;20498;-49
2023/01/22 03:58:45;;;;;;;27.23;13.15;;;-0.50;99.90;;;;;;5071283;28;20132;-48
2023/01/22 04:01:13;;;;;;;27.48;11.30;;;-0.70;99.90;;;;;;5053085;28;20115;-48
2023/01/22 04:03:39;;;;;;;29.75;11.63;;;-0.50;99.90;;;;;;5071782;28;20411;-50
2023/01/22 04:06:07;;;;;;;31.20;13.50;;;-0.70;99.90;;;;;;5071676;28;20383;-48
2023/01/22 04:08:35;;;;;;;26.02;12.43;;;-0.40;99.90;;;;;;5071472;28;20036;-46
2023/01/22 04:11:02;;;;;;;27.75;11.48;;;-0.70;99.90;;;;;;5071613;28;20032;-51
2023/01/22 04:13:29;;;;;;;32.40;13.20;;;-0.60;99.90;;;;;;5071357;28;20036;-46
2023/01/22 04:15:55;;;;;;;25.63;11.45;;;-0.30;99.90;;;;;;5069445;28;20428;-49
2023/01/22 04:18:20;;;;;;;26.15;11.27;;;-0.60;99.90;;;;;;5070976;28;20048;-48
2023/01/22 04:20:51;;;;;;;23.27;11.10;;;-0.50;99.90;;;;;;5071049;28;20033;-48
2023/01/22 04:23:17;;;;;;;21.02;10.15;;;-0.50;99.90;;;;;;5070793;28;20074;-47
2023/01/22 04:25:43;;;;;;;25.17;10.57;;;-0.30;99.90;;;;;;5070939;28;20051;-48
2023/01/22 04:28:13;;;;;;;22.17;11.00;;;-0.40;99.90;;;;;;5070783;28;20044;-46
2023/01/22 04:30:39;;;;;;;24.30;10.82;;;-0.20;99.90;;;;;;5069080;28;20723;-51
2023/01/22 04:33:05;;;;;;;23.27;10.80;;;-0.40;99.90;;;;;;5071170;28;20131;-47
2023/01/22 04:35:31;;;;;;;21.73;10.77;;;-0.20;99.90;;;;;;5071046;28;20111;-49
2023/01/22 04:37:57;;;;;;;19.38;9.82;;;-0.40;99.90;;;;;;5070495;28;20040;-48
2023/01/22 04:40:23;;;;;;;19.33;10.32;;;-0.40;99.90;;;;;;5070638;28;20186;-48
2023/01/22 04:42:49;;;;;;;23.58;10.07;;;-0.40;99.90;;;;;;5070482;28;20040;-49
2023/01/22 04:45:15;;;;;;;18.10;9.25;;;-0.20;99.90;;;;;;5071106;28;20051;-48
2023/01/22 04:47:42;;;;;;;16.70;8.15;;;-0.20;99.90;;;;;;5069893;28;20044;-49
2023/01/22 04:50:19;;;;;;;20.33;9.20;;;-0.30;99.90;;;;;;5070649;28;20036;-50
2023/01/22 04:52:45;;;;;;;16.67;8.68;;;-0.30;99.90;;;;;;5070575;28;20032;-47
2023/01/22 04:55:11;;;;;;;16.13;8.32;;;-0.20;99.90;;;;;;5070149;28;20094;-46
2023/01/22 04:57:37;;;;;;;17.02;9.10;;;-0.10;99.90;;;;;;5070596;28;20115;-49
2023/01/22 05:00:05;;;;;;;18.08;8.90;;;-0.30;99.90;;;;;;5067949;28;20040;-49
2023/01/22 05:02:30;;;;;;;18.90;9.18;;;-0.10;99.90;;;;;;5068807;28;20051;-50
2023/01/22 05:04:56;;;;;;;16.00;8.13;;;-0.10;99.90;;;;;;5070724;28;20040;-47
2023/01/22 05:07:22;;;;;;;16.80;8.57;;;0.00;99.90;;;;;;5071257;28;20454;-51
2023/01/22 05:09:47;;;;;;;16.27;7.82;;;-0.10;99.90;;;;;;5070537;28;20179;-50
2023/01/22 05:12:13;;;;;;;16.13;8.27;;;0.00;99.90;;;;;;5070458;28;20279;-49
2023/01/22 05:14:39;;;;;;;15.55;7.65;;;0.00;99.90;;;;;;5070470;28;20047;-47
2023/01/22 05:17:05;;;;;;;13.65;7.22;;;-0.10;99.90;;;;;;5070184;28;20549;-47
2023/01/22 05:19:31;;;;;;;14.43;7.55;;;-0.10;99.90;;;;;;5070553;28;20082;-50
2023/01/22 05:21:56;;;;;;;16.42;7.43;;;0.00;99.90;;;;;;5070212;28;20037;-49
2023/01/22 05:24:22;;;;;;;12.50;7.13;;;0.30;99.90;;;;;;5070228;28;20036;-49
2023/01/22 05:26:48;;;;;;;15.30;7.75;;;0.00;99.90;;;;;;5069789;28;20043;-50
2023/01/22 05:29:13;;;;;;;14.23;7.13;;;0.00;99.90;;;;;;5070464;28;20317;-49
2023/01/22 05:31:39;;;;;;;16.40;7.97;;;0.00;99.90;;;;;;5070404;28;20047;-49
2023/01/22 05:34:05;;;;;;;16.63;7.85;;;0.10;99.90;;;;;;5070611;28;20117;-50
2023/01/22 05:36:31;;;;;;;17.48;7.25;;;0.10;99.90;;;;;;5068737;28;20032;-49
2023/01/22 05:38:56;;;;;;;15.13;7.13;;;0.00;99.90;;;;;;5070201;28;20467;-49
2023/01/22 05:41:22;;;;;;;13.57;6.50;;;0.00;99.90;;;;;;5073672;28;20040;-47
2023/01/22 05:43:48;;;;;;;13.23;7.15;;;0.00;99.90;;;;;;5076483;28;20037;-50
2023/01/22 05:46:14;;;;;;;12.55;6.60;;;0.30;99.90;;;;;;5074952;28;20039;-48
2023/01/22 05:48:39;;;;;;;14.75;6.68;;;0.10;99.90;;;;;;5076481;28;20436;-49
2023/01/22 05:51:06;;;;;;;12.30;6.90;;;0.00;99.90;;;;;;5076591;28;20051;-50
2023/01/22 05:53:33;;;;;;;12.50;6.70;;;0.00;99.90;;;;;;5076348;28;20052;-47
2023/01/22 05:56:03;;;;;;;12.80;6.50;;;0.10;99.90;;;;;;5076306;28;20040;-47
2023/01/22 05:58:30;;;;;;;12.90;6.68;;;0.10;99.90;;;;;;5076280;28;20166;-51
2023/01/22 06:00:56;;;;;;;15.25;6.63;;;0.00;99.90;;;;;;5076170;28;20047;-52
2023/01/22 06:03:22;;;;;;;13.32;7.45;;;0.10;99.90;;;;;;5076254;28;20044;-46
2023/01/22 06:05:57;;;;;;;10.75;6.28;;;0.10;99.90;;;;;;5075246;28;20045;-50
2023/01/22 06:08:22;;;;;;;12.02;6.28;;;0.10;99.90;;;;;;5076633;28;20040;-50
2023/01/22 06:10:48;;;;;;;19.70;6.85;;;0.10;99.90;;;;;;5076735;28;20395;-49
2023/01/22 06:13:14;;;;;;;12.10;6.43;;;0.00;99.90;;;;;;5077020;28;20029;-49
2023/01/22 06:15:42;;;;;;;13.07;7.32;;;0.00;99.90;;;;;;5076988;28;20392;-50
2023/01/22 06:18:08;;;;;;;10.73;5.93;;;0.10;99.90;;;;;;5076154;28;20060;-49
2023/01/22 06:20:35;;;;;;;15.23;6.95;;;0.00;99.90;;;;;;5076650;28;20044;-50
2023/01/22 06:23:01;;;;;;;14.85;7.45;;;0.10;99.90;;;;;;5076158;28;20090;-51
2023/01/22 06:25:26;;;;;;;12.98;7.18;;;0.10;99.90;;;;;;5076085;28;20040;-51
2023/01/22 06:27:52;;;;;;;13.63;7.57;;;0.10;99.90;;;;;;5076433;28;20036;-48
2023/01/22 06:30:18;;;;;;;14.48;7.60;;;0.60;99.90;;;;;;5074459;28;20044;-49
2023/01/22 06:32:43;;;;;;;14.75;7.38;;;0.00;99.90;;;;;;5074354;28;20486;-51
2023/01/22 06:35:09;;;;;;;13.65;6.70;;;0.10;99.90;;;;;;5076090;28;20035;-47
2023/01/22 06:37:35;;;;;;;13.60;7.53;;;0.00;99.90;;;;;;5076356;28;20032;-50
2023/01/22 06:40:00;;;;;;;16.77;7.15;;;0.10;99.90;;;;;;5076493;28;20165;-51
2023/01/22 06:42:26;;;;;;;14.98;6.72;;;0.10;99.90;;;;;;5076016;28;20424;-50
2023/01/22 06:44:52;;;;;;;12.10;7.32;;;0.00;99.90;;;;;;5076014;28;20036;-51
2023/01/22 06:47:18;;;;;;;13.50;6.97;;;0.00;99.90;;;;;;5075898;28;20032;-49
2023/01/22 06:49:43;;;;;;;11.48;6.47;;;0.80;99.90;;;;;;5076266;28;20037;-48
2023/01/22 06:52:09;;;;;;;12.63;7.07;;;0.10;99.90;;;;;;5075045;28;20452;-49
2023/01/22 06:54:35;;;;;;;14.50;7.50;;;0.10;99.90;;;;;;5070743;28;20051;-48
2023/01/22 06:57:00;;;;;;;13.68;6.82;;;0.00;99.90;;;;;;5073495;28;20033;-51
2023/01/22 06:59:26;;;;;;;16.10;8.18;;;0.00;99.90;;;;;;5073456;28;20476;-48
2023/01/22 07:01:52;;;;;;;13.48;7.63;;;0.10;99.90;;;;;;5072649;28;20502;-51
2023/01/22 07:04:17;;;;;;;14.48;7.07;;;0.10;99.90;;;;;;5072919;28;20067;-50
2023/01/22 07:06:43;;;;;;;18.83;7.68;;;0.10;99.90;;;;;;5072469;28;20064;-50
2023/01/22 07:09:09;;;;;;;14.93;6.80;;;0.10;99.90;;;;;;5071033;28;20048;-52
2023/01/22 07:11:34;;;;;;;12.10;6.70;;;0.10;99.90;;;;;;5072544;28;20049;-48
2023/01/22 07:14:00;;;;;;;14.63;8.18;;;0.10;99.90;;;;;;5072568;28;20130;-49
2023/01/22 07:16:26;;;;;;;15.70;7.10;;;0.10;99.90;;;;;;5053263;28;20491;-51
2023/01/22 07:18:51;;;;;;;15.38;7.18;;;0.00;99.90;;;;;;5072058;28;20119;-49
2023/01/22 07:21:17;;;;;;;15.27;7.35;;;0.00;99.90;;;;;;5067103;28;20040;-50
2023/01/22 07:23:43;;;;;;;13.02;6.78;;;0.10;99.90;;;;;;5072093;28;20423;-50
2023/01/22 07:26:08;;;;;;;13.57;7.60;;;0.10;99.90;;;;;;5080942;28;20033;-51
2023/01/22 07:28:34;;;;;;;13.43;6.63;;;0.00;99.90;;;;;;5071892;28;20047;-51
2023/01/22 07:31:02;;;;;;;13.65;7.53;;;0.00;99.90;;;;;;5071728;28;20397;-48
2023/01/22 07:33:27;;;;;;;13.48;7.28;;;0.10;99.90;;;;;;5071993;28;20043;-51
2023/01/22 07:35:57;;;;;;;14.88;6.88;;;0.00;99.90;;;;;;5070809;28;20029;-52
2023/01/22 07:38:25;;;;;;;12.45;6.95;;;0.00;99.90;;;;;;5071016;28;20044;-48
2023/01/22 07:40:51;;;;;;;12.90;7.35;;;0.00;99.90;;;;;;5063801;28;20102;-48
2023/01/22 07:43:16;;;;;;;14.63;7.22;;;0.80;99.90;;;;;;5059323;28;20466;-50
2023/01/22 07:45:42;;;;;;;15.60;7.30;;;0.10;99.90;;;;;;5061581;28;20503;-52
2023/01/22 07:48:09;;;;;;;13.27;7.07;;;0.00;99.90;;;;;;5061015;28;20495;-49
2023/01/22 07:50:38;;;;;;;15.95;7.28;;;0.00;99.90;;;;;;5060663;28;20037;-50
2023/01/22 07:53:05;;;;;;;14.32;8.18;;;0.00;99.90;;;;;;5059826;28;20131;-50
2023/01/22 07:55:31;;;;;;;13.07;7.55;;;0.00;99.90;;;;;;5061275;28;20057;-49
2023/01/22 07:58:02;;;;;;;15.02;7.55;;;0.00;99.90;;;;;;5059393;28;20052;-49
2023/01/22 08:00:29;;;;;;;14.45;7.85;;;-0.10;99.90;;;;;;5054143;28;20091;-50
2023/01/22 08:02:55;;;;;;;13.85;6.70;;;-0.10;99.90;;;;;;5058734;28;20043;-48
2023/01/22 08:05:20;;;;;;;13.80;7.28;;;0.30;99.90;;;;;;5062785;28;20032;-48
2023/01/22 08:07:46;;;;;;;14.05;7.28;;;-0.10;99.90;;;;;;5061700;28;20472;-49
2023/01/22 08:10:13;;;;;;;15.27;6.78;;;-0.10;99.90;;;;;;5053860;28;20081;-52
2023/01/22 08:12:41;;;;;;;14.50;7.70;;;-0.20;99.90;;;;;;5051196;28;20558;-53
2023/01/22 08:15:08;;;;;;;13.35;7.10;;;-0.10;99.90;;;;;;5052118;28;20040;-48
2023/01/22 08:17:33;;;;;;;14.77;7.57;;;-0.10;99.90;;;;;;5068388;28;20035;-50
2023/01/22 08:19:59;;;;;;;14.75;7.97;;;-0.20;99.90;;;;;;5067011;28;20037;-49
2023/01/22 08:22:25;;;;;;;15.45;8.20;;;-0.20;99.90;;;;;;5067811;28;20109;-50
2023/01/22 08:24:51;;;;;;;15.38;7.93;;;-0.10;99.90;;;;;;5070316;28;20446;-48
2023/01/22 08:27:16;;;;;;;14.68;7.82;;;-0.10;99.90;;;;;;5068424;28;20048;-48
2023/01/22 08:29:42;;;;;;;16.00;8.07;;;-0.10;99.90;;;;;;5070788;28;20384;-51
2023/01/22 08:32:08;;;;;;;13.80;7.90;;;-0.10;99.90;;;;;;5069928;28;20047;-49
2023/01/22 08:34:33;;;;;;;11.95;6.90;;;-0.10;99.90;;;;;;5070495;28;20048;-48
2023/01/22 08:36:59;;;;;;;16.73;8.15;;;-0.10;99.90;;;;;;5070573;28;20079;-48
2023/01/22 08:39:25;;;;;;;16.73;8.00;;;0.00;99.90;;;;;;5070652;28;20048;-47
2023/01/22 08:41:56;;;;;;;14.80;8.20;;;-0.10;99.90;;;;;;5070444;28;20080;-47
2023/01/22 08:44:22;;;;;;;14.85;8.15;;;0.00;99.90;;;;;;5069852;28;20079;-47
2023/01/22 08:46:48;;;;;;;14.90;7.95;;;0.00;99.90;;;;;;5070305;28;20033;-48
2023/01/22 08:49:14;;;;;;;16.10;8.10;;;-0.10;99.90;;;;;;5070050;28;20044;-49
2023/01/22 08:51:40;;;;;;;14.15;8.18;;;0.00;99.90;;;;;;5070147;28;20036;-50
2023/01/22 08:54:05;;;;;;;16.52;8.63;;;0.00;99.90;;;;;;5069812;28;20139;-49
2023/01/22 08:56:31;;;;;;;17.77;8.82;;;0.10;99.90;;;;;;5072982;28;20036;-48
2023/01/22 08:58:59;;;;;;;13.77;7.75;;;0.10;99.90;;;;;;5068852;28;20498;-50
2023/01/22 09:01:25;;;;;;;15.18;8.32;;;0.10;99.90;;;;;;5069314;28;20044;-51
2023/01/22 09:03:51;;;;;;;16.92;8.55;;;0.10;99.90;;;;;;5070210;28;20040;-50
2023/01/22 09:06:17;;;;;;;15.13;7.75;;;0.10;99.90;;;;;;5070021;28;20043;-49
2023/01/22 09:08:42;;;;;;;16.10;8.57;;;0.20;99.90;;;;;;5069595;28;20041;-47
2023/01/22 09:11:08;;;;;;;16.13;8.80;;;0.20;99.90;;;;;;5070062;28;20040;-47
2023/01/22 09:13:34;;;;;;;17.25;8.52;;;0.30;99.90;;;;;;5069820;28;20037;-49
2023/01/22 09:16:00;;;;;;;15.38;8.93;;;0.20;99.90;;;;;;5069023;28;20043;-48
2023/01/22 09:18:25;;;;;;;16.33;8.70;;;0.30;99.90;;;;;;5069815;28;20040;-51
2023/01/22 09:20:51;;;;;;;15.90;8.65;;;0.20;99.90;;;;;;5069582;28;20037;-52
2023/01/22 09:23:17;;;;;;;17.60;9.57;;;0.20;99.90;;;;;;5069834;28;20304;-52
2023/01/22 09:25:43;;;;;;;16.80;9.77;;;0.30;99.90;;;;;;5069697;28;20044;-50
2023/01/22 09:28:11;;;;;;;15.88;9.50;;;0.30;99.90;;;;;;5069789;28;20061;-49
2023/01/22 09:30:39;;;;;;;17.58;9.38;;;0.30;99.90;;;;;;5068680;28;20577;-49
2023/01/22 09:33:05;;;;;;;17.05;8.82;;;0.30;99.90;;;;;;5069348;28;20047;-49
2023/01/22 09:35:30;;;;;;;15.60;8.70;;;0.30;99.90;;;;;;5069648;28;20443;-53
2023/01/22 09:37:56;;;;;;;17.73;9.05;;;0.30;99.90;;;;;;5069555;28;20043;-52
2023/01/22 09:40:39;;;;;;;15.82;9.23;;;0.30;99.90;;;;;;5068390;28;20129;-51
2023/01/22 09:43:14;;;;;;;15.27;9.63;;;0.30;99.90;;;;;;5069636;28;20029;-49
2023/01/22 09:45:40;;;;;;;15.30;8.63;;;0.30;99.90;;;;;;5070077;28;20040;-49
2023/01/22 09:48:15;;;;;;;15.50;8.77;;;0.40;99.90;;;;;;5070051;28;20503;-52
2023/01/22 09:50:42;;;;;;;16.30;9.48;;;0.30;99.90;;;;;;5069947;28;20028;-48
2023/01/22 09:53:14;;;;;;;18.73;9.40;;;0.30;99.90;;;;;;5069921;28;20033;-51
2023/01/22 09:55:45;;;;;;;19.33;8.90;;;0.40;99.90;;;;;;5069614;28;20135;-49
2023/01/22 09:58:17;;;;;;;18.15;9.38;;;0.40;99.90;;;;;;5068321;28;20052;-51
2023/01/22 10:00:50;;;;;;;14.05;8.68;;;0.40;99.90;;;;;;5069909;28;20047;-51
2023/01/22 10:03:36;;;;;;;13.45;7.65;;;0.50;99.90;;;;;;5069615;28;20051;-50
2023/01/22 10:06:12;;;;;;;14.15;8.88;;;0.50;99.90;;;;;;5068294;28;20037;-52
2023/01/22 10:09:00;;;;;;;15.55;8.63;;;0.50;99.90;;;;;;5069907;28;20111;-49
2023/01/22 10:11:26;;;;;;;15.35;8.50;;;0.50;99.90;;;;;;5069582;28;20098;-49
2023/01/22 10:13:58;;;;;;;16.45;9.15;;;0.50;99.90;;;;;;5069701;28;20204;-49
2023/01/22 10:16:24;;;;;;;13.52;8.68;;;0.50;99.90;;;;;;5069896;28;20465;-50
2023/01/22 10:19:04;;;;;;;15.43;8.73;;;0.60;99.90;;;;;;5069705;28;20040;-49
2023/01/22 10:21:40;;;;;;;16.40;8.70;;;0.60;99.90;;;;;;5069330;28;20036;-53
2023/01/22 10:24:09;;;;;;;17.42;8.52;;;0.60;99.90;;;;;;5069518;28;20170;-48
2023/01/22 10:26:38;;;;;;;15.90;8.38;;;0.60;99.90;;;;;;5069646;28;20040;-50
2023/01/22 10:29:07;;;;;;;12.45;7.38;;;0.60;99.90;;;;;;5073218;28;20056;-50
2023/01/22 10:31:36;;;;;;;12.20;8.05;;;0.60;99.90;;;;;;5071896;28;20121;-51
2023/01/22 10:34:11;;;;;;;12.43;7.35;;;0.90;99.90;;;;;;5085914;28;20032;-51
2023/01/22 10:36:37;;;;;;;14.13;8.05;;;0.60;99.90;;;;;;5073048;28;20072;-52
2023/01/22 10:39:13;;;;;;;13.25;8.20;;;0.70;99.90;;;;;;5073265;28;20622;-49
2023/01/22 10:41:41;;;;;;;13.98;8.80;;;0.80;99.90;;;;;;5073534;28;20357;-52
2023/01/22 10:44:21;;;;;;;15.88;8.57;;;0.70;99.90;;;;;;5073114;28;20572;-52
2023/01/22 10:46:48;;;;;;;15.15;7.45;;;0.80;99.90;;;;;;5072846;28;20097;-50
2023/01/22 10:49:23;;;;;;;19.13;8.20;;;0.80;99.90;;;;;;5073114;28;20048;-48
2023/01/22 10:51:54;;;;;;;17.50;8.57;;;0.80;99.90;;;;;;5072986;28;20070;-49
2023/01/22 10:54:42;;;;;;;14.38;7.90;;;0.80;99.90;;;;;;5074114;28;20517;-51
2023/01/22 10:57:21;;;;;;;12.60;7.53;;;0.80;99.90;;;;;;5075252;28;20047;-48
2023/01/22 10:59:51;;;;;;;16.90;8.88;;;0.80;99.90;;;;;;5072985;28;20040;-50
2023/01/22 11:02:22;;;;;;;16.25;8.55;;;0.80;99.90;;;;;;5070971;28;20080;-49
2023/01/22 11:04:48;;;;;;;13.25;7.65;;;0.90;99.90;;;;;;5072491;28;20040;-51
2023/01/22 11:07:21;;;;;;;15.55;8.10;;;0.90;99.90;;;;;;5072794;28;20046;-49
2023/01/22 11:09:56;;;;;;;15.73;8.07;;;0.90;99.90;;;;;;5072122;28;20154;-50
2023/01/22 11:12:22;;;;;;;14.50;7.75;;;0.90;99.90;;;;;;5071707;28;20117;-55
2023/01/22 11:14:57;;;;;;;14.50;7.90;;;0.90;99.90;;;;;;5072031;28;20653;-50
2023/01/22 11:17:33;;;;;;;17.25;8.02;;;1.00;99.90;;;;;;5071987;28;20495;-51
2023/01/22 11:20:29;;;;;;;21.40;8.23;;;1.00;99.90;;;;;;5072277;28;20067;-48
2023/01/22 11:23:10;;;;;;;18.02;8.07;;;0.90;99.90;;;;;;5078048;28;20029;-53
2023/01/22 11:25:51;;;;;;;12.20;7.68;;;1.00;99.90;;;;;;5072167;28;20040;-51
2023/01/22 11:28:52;;;;;;;13.85;7.65;;;1.00;99.90;;;;;;5072395;28;20146;-51
2023/01/22 11:31:41;;;;;;;14.60;7.70;;;0.90;99.90;;;;;;5071179;28;20036;-48
2023/01/22 11:34:37;;;;;;;14.85;8.23;;;0.90;99.90;;;;;;5071086;28;20052;-49
2023/01/22 11:37:15;;;;;;;13.48;7.70;;;0.90;99.90;;;;;;5077334;28;20059;-50
2023/01/22 11:39:47;;;;;;;14.60;7.50;;;0.90;99.90;;;;;;5071396;28;20085;-47
2023/01/22 11:42:37;;;;;;;14.10;7.53;;;1.00;99.90;;;;;;5053237;28;20056;-50
2023/01/22 11:45:11;;;;;;;13.43;7.97;;;1.00;99.90;;;;;;5072146;28;20048;-50
2023/01/22 11:47:55;;;;;;;15.20;8.03;;;1.00;99.90;;;;;;5071811;28;20044;-51
2023/01/22 11:50:26;;;;;;;;;;;1.10;99.90;;;;;;5069840;28;20036;-50
2023/01/22 11:53:19;;;;;;;18.67;7.60;;;1.10;99.90;;;;;;5071060;28;19920;-52
2023/01/22 11:56:16;;;;;;;15.20;8.35;;;1.10;99.90;;;;;;5070373;28;20056;-51
2023/01/22 11:59:08;;;;;;;16.23;8.68;;;1.10;99.90;;;;;;5074636;28;20035;-51
2023/01/22 12:01:53;;;;;;;15.50;8.52;;;1.10;99.90;;;;;;5070582;28;20517;-51
2023/01/22 12:04:41;;;;;;;16.27;8.82;;;1.20;99.90;;;;;;5070790;28;20076;-49
2023/01/22 12:07:30;;;;;;;15.85;8.95;;;1.20;99.90;;;;;;5070431;28;20427;-50
2023/01/22 12:10:40;;;;;;;15.02;8.35;;;1.20;99.90;;;;;;5069801;28;20090;-51
2023/01/22 12:13:27;;;;;;;12.30;8.43;;;1.20;99.90;;;;;;5070204;28;20491;-50
2023/01/22 12:16:09;;;;;;;14.32;8.43;;;1.20;99.90;;;;;;5069465;28;20472;-50
2023/01/22 12:18:53;;;;;;;17.02;8.80;;;1.20;99.90;;;;;;5072809;28;20036;-49
2023/01/22 12:21:26;;;;;;;17.88;8.82;;;1.30;99.90;;;;;;5069804;28;20040;-51
2023/01/22 12:24:00;;;;;;;16.17;8.88;;;1.30;99.90;;;;;;5070490;28;20048;-49
2023/01/22 12:26:31;;;;;;;18.15;8.95;;;1.30;99.90;;;;;;5070394;28;20040;-47
2023/01/22 12:29:11;;;;;;;14.48;8.52;;;1.30;99.90;;;;;;5068502;28;20565;-50
2023/01/22 12:31:46;;;;;;;15.73;9.00;;;1.40;99.90;;;;;;5068934;28;20036;-53
2023/01/22 12:34:52;;;;;;;16.45;8.93;;;1.40;99.90;;;;;;5068893;28;20043;-51
2023/01/22 12:37:24;;;;;;;17.23;9.05;;;1.40;99.90;;;;;;5061424;28;20040;-50
2023/01/22 12:40:14;;;;;;;14.82;9.00;;;1.50;99.90;;;;;;5069496;28;20052;-50
2023/01/22 12:42:48;;;;;;;15.07;8.95;;;1.40;99.90;;;;;;5070130;28;20047;-52
2023/01/22 12:45:30;;;;;;;16.05;8.65;;;2.00;99.90;;;;;;5070853;28;20404;-52
2023/01/22 12:48:30;;;;;;;16.88;8.80;;;1.50;99.90;;;;;;5070918;28;20048;-52
2023/01/22 12:50:57;;;;;;;14.57;9.30;;;1.50;99.90;;;;;;5072698;28;20097;-51
2023/01/22 12:53:33;;;;;;;15.40;9.02;;;1.50;99.90;;;;;;5075120;28;20037;-52
2023/01/22 12:56:04;;;;;;;17.42;9.02;;;1.50;99.90;;;;;;5069439;28;20519;-50
2023/01/22 12:58:32;;;;;;;16.73;9.48;;;1.60;99.90;;;;;;5070246;28;20076;-52
2023/01/22 13:00:59;;;;;;;16.75;8.93;;;1.60;99.90;;;;;;5070687;28;20063;-48
2023/01/22 13:03:28;;;;;;;17.52;9.45;;;1.70;99.90;;;;;;5069742;28;20044;-50